createdAt,value
2019-03-19T00:00:46.765Z,95799.30
2019-03-19T00:03:20.712Z,95806.79
2019-03-19T00:05:53.380Z,95790.38
2019-03-19T00:08:26.880Z,95801.55
2019-03-19T00:10:59.546Z,95810.39
2019-03-19T00:13:32.253Z,95803.66
2019-03-19T00:16:06.702Z,95801.77
2019-03-19T00:18:40.281Z,95793.98
2019-03-19T00:21:12.916Z,95796.09
2019-03-19T00:23:46.405Z,95802.02
2019-03-19T00:26:19.035Z,95792.34
2019-03-19T00:28:51.491Z,95794.44
2019-03-19T00:31:24.154Z,95791.77
2019-03-19T00:33:56.799Z,95795.96
2019-03-19T00:36:30.343Z,95790.73
2019-03-19T00:39:03.005Z,95797.83
2019-03-19T00:41:35.616Z,95789.33
2019-03-19T00:44:09.043Z,95795.38
2019-03-19T00:46:41.736Z,95797.45
2019-03-19T00:49:15.630Z,95796.41
2019-03-19T00:51:49.072Z,95801.83
2019-03-19T00:54:24.830Z,95794.44
2019-03-19T00:56:57.581Z,95795.61
2019-03-19T00:59:30.512Z,95799.67
2019-03-19T01:02:03.969Z,95798.70
2019-03-19T01:04:37.507Z,95797.66
2019-03-19T01:07:10.267Z,95797.91
2019-03-19T01:09:43.769Z,95792.20
2019-03-19T01:12:17.118Z,95792.73
2019-03-19T01:14:49.813Z,95795.52
2019-03-19T01:17:22.510Z,95790.06
2019-03-19T01:19:55.065Z,95792.05
2019-03-19T01:22:27.775Z,95791.45
2019-03-19T01:25:01.240Z,95800.94
2019-03-19T01:27:33.828Z,95787.03
2019-03-19T01:30:08.907Z,95792.48
2019-03-19T01:32:42.403Z,95797.55
2019-03-19T01:35:15.607Z,95798.19
2019-03-19T01:37:49.109Z,95800.03
2019-03-19T01:40:22.752Z,95801.45
2019-03-19T01:42:56.185Z,95803.14
2019-03-19T01:45:29.074Z,95805.63
2019-03-19T01:48:01.977Z,95805.14
2019-03-19T01:50:36.396Z,95805.62
2019-03-19T01:53:10.042Z,95802.53
2019-03-19T01:55:43.987Z,95805.93
2019-03-19T01:58:16.897Z,95798.77
2019-03-19T02:00:50.466Z,95801.53
2019-03-19T02:03:25.846Z,95802.88
2019-03-19T02:06:00.190Z,95806.22
2019-03-19T02:08:37.239Z,95801.03
2019-03-19T02:11:13.494Z,95801.11
2019-03-19T02:13:51.851Z,95795.01
2019-03-19T02:16:31.426Z,95802.17
2019-03-19T02:19:07.230Z,95806.88
2019-03-19T02:21:41.624Z,95801.03
2019-03-19T02:24:15.386Z,95800.15
2019-03-19T02:26:49.955Z,95801.77
2019-03-19T02:29:23.891Z,95800.21
2019-03-19T02:31:57.707Z,95795.27
2019-03-19T02:34:31.279Z,95799.77
2019-03-19T02:37:07.934Z,95794.27
2019-03-19T02:39:40.679Z,95800.17
2019-03-19T02:42:14.114Z,95803.10
2019-03-19T02:44:46.861Z,95803.53
2019-03-19T02:47:20.324Z,95800.28
2019-03-19T02:49:53.001Z,95794.22
2019-03-19T02:52:26.549Z,95793.28
2019-03-19T02:55:00.018Z,95787.95
2019-03-19T02:57:33.420Z,95798.83
2019-03-19T03:00:07.163Z,95801.48
2019-03-19T03:02:39.630Z,95806.21
2019-03-19T03:05:14.959Z,95800.05
2019-03-19T03:07:47.549Z,95808.63
2019-03-19T03:10:20.980Z,95808.18
2019-03-19T03:12:53.515Z,95813.18
2019-03-19T03:15:26.308Z,95809.59
2019-03-19T03:17:58.790Z,95809.86
2019-03-19T03:20:32.269Z,95810.52
2019-03-19T03:23:05.026Z,95809.14
2019-03-19T03:25:37.628Z,95811.69
2019-03-19T03:28:11.172Z,95807.25
2019-03-19T03:30:43.645Z,95819.41
2019-03-19T03:33:17.037Z,95820.84
2019-03-19T03:35:49.391Z,95831.28
2019-03-19T03:38:22.869Z,95828.15
2019-03-19T03:40:55.433Z,95829.19
2019-03-19T03:43:28.176Z,95823.77
2019-03-19T03:46:03.235Z,95822.63
2019-03-19T03:48:39.462Z,95824.86
2019-03-19T03:51:13.336Z,95824.69
2019-03-19T03:53:46.572Z,95831.39
2019-03-19T03:56:21.426Z,95840.87
2019-03-19T03:59:00.949Z,95836.04
2019-03-19T04:01:33.972Z,95829.91
2019-03-19T04:04:10.149Z,95833.28
2019-03-19T04:06:48.384Z,95835.58
2019-03-19T04:09:26.028Z,95830.88
2019-03-19T04:12:03.174Z,95829.50
2019-03-19T04:14:36.876Z,95827.89
2019-03-19T04:17:10.321Z,95830.43
2019-03-19T04:19:42.977Z,95836.77
2019-03-19T04:22:16.238Z,95837.14
2019-03-19T04:24:50.098Z,95840.32
2019-03-19T04:27:22.906Z,95845.04
2019-03-19T04:29:55.550Z,95849.97
2019-03-19T04:32:28.104Z,95849.90
2019-03-19T04:35:00.473Z,95848.14
2019-03-19T04:37:33.369Z,95849.52
2019-03-19T04:40:07.753Z,95851.91
2019-03-19T04:42:40.468Z,95848.31
2019-03-19T04:45:13.657Z,95848.90
2019-03-19T04:47:46.838Z,95854.66
2019-03-19T04:50:20.125Z,95849.22
2019-03-19T04:52:53.169Z,95845.80
2019-03-19T04:55:28.020Z,95857.55
2019-03-19T04:58:00.233Z,95857.07
2019-03-19T05:00:32.476Z,95851.34
2019-03-19T05:03:05.717Z,95850.87
2019-03-19T05:05:38.427Z,95851.45
2019-03-19T05:08:11.317Z,95865.69
2019-03-19T05:10:44.554Z,95863.53
2019-03-19T05:13:17.863Z,95873.79
2019-03-19T05:15:50.994Z,95863.91
2019-03-19T05:18:23.360Z,95872.53
2019-03-19T05:20:56.462Z,95872.73
2019-03-19T05:23:29.050Z,95874.81
2019-03-19T05:26:02.218Z,95877.83
2019-03-19T05:28:35.298Z,95880.13
2019-03-19T05:31:08.424Z,95882.91
2019-03-19T05:33:41.437Z,95888.14
2019-03-19T05:36:13.657Z,95888.28
2019-03-19T05:38:46.721Z,95895.27
2019-03-19T05:41:19.825Z,95889.36
2019-03-19T05:43:52.401Z,95891.81
2019-03-19T05:46:25.515Z,95895.20
2019-03-19T05:48:58.679Z,95900.10
2019-03-19T05:51:31.853Z,95893.22
2019-03-19T05:54:05.093Z,95898.23
2019-03-19T05:56:38.177Z,95898.78
2019-03-19T05:59:11.369Z,95910.24
2019-03-19T06:01:44.076Z,95903.34
2019-03-19T06:04:17.059Z,95910.14
2019-03-19T06:06:50.154Z,95911.41
2019-03-19T06:09:23.189Z,95914.28
2019-03-19T06:11:56.275Z,95915.80
2019-03-19T06:14:31.228Z,95930.73
2019-03-19T06:17:04.446Z,95924.39
2019-03-19T06:19:37.426Z,95922.78
2019-03-19T06:22:10.607Z,95925.07
2019-03-19T06:24:43.554Z,95929.97
2019-03-19T06:27:16.394Z,95940.93
2019-03-19T06:29:49.514Z,95949.03
2019-03-19T06:32:23.140Z,95948.58
2019-03-19T06:34:55.839Z,95951.53
2019-03-19T06:37:28.061Z,95954.05
2019-03-19T06:40:00.633Z,95965.66
2019-03-19T06:42:33.468Z,95969.63
2019-03-19T06:45:06.636Z,95967.98
2019-03-19T06:47:39.751Z,95961.13
2019-03-19T06:50:14.169Z,95956.77
2019-03-19T06:52:47.440Z,95970.59
2019-03-19T06:55:20.468Z,95971.50
2019-03-19T06:57:53.396Z,95965.00
2019-03-19T07:00:26.539Z,95973.05
2019-03-19T07:02:59.424Z,95965.92
2019-03-19T07:05:32.513Z,95972.45
2019-03-19T07:08:05.374Z,95974.32
2019-03-19T07:10:38.355Z,95975.95
2019-03-19T07:13:11.231Z,95982.46
2019-03-19T07:15:44.188Z,95989.71
2019-03-19T07:18:17.051Z,95981.22
2019-03-19T07:20:50.101Z,95986.09
2019-03-19T07:23:23.169Z,95989.77
2019-03-19T07:28:38.531Z,95999.13
2019-03-19T07:31:11.563Z,95999.51
2019-03-19T07:33:44.483Z,95999.51
2019-03-19T07:36:17.403Z,96012.77
2019-03-19T07:38:50.390Z,96007.17
2019-03-19T07:41:23.439Z,96004.51
2019-03-19T07:43:56.483Z,96011.55
2019-03-19T07:46:29.383Z,96006.69
2019-03-19T07:49:02.246Z,96003.98
2019-03-19T07:51:35.165Z,95999.95
2019-03-19T07:54:07.946Z,96001.72
2019-03-19T07:56:40.829Z,96007.84
2019-03-19T07:59:13.745Z,96010.45
2019-03-19T08:01:46.578Z,96004.41
2019-03-19T08:04:19.369Z,96005.38
2019-03-19T08:06:52.235Z,96007.67
2019-03-19T08:09:25.140Z,96013.38
2019-03-19T08:11:58.069Z,96010.97
2019-03-19T08:14:31.022Z,96014.84
2019-03-19T08:17:03.845Z,96021.38
2019-03-19T08:19:36.705Z,96022.96
2019-03-19T08:22:09.674Z,96022.20
2019-03-19T08:24:42.571Z,96021.46
2019-03-19T08:27:15.415Z,96022.91
2019-03-19T08:29:48.270Z,96023.83
2019-03-19T08:32:21.223Z,96021.66
2019-03-19T08:34:54.196Z,96021.12
2019-03-19T08:37:27.056Z,96026.61
2019-03-19T08:39:59.889Z,96013.09
2019-03-19T08:42:32.657Z,96011.23
2019-03-19T08:45:05.881Z,96012.70
2019-03-19T08:47:38.684Z,96006.05
2019-03-19T08:50:15.164Z,96012.33
2019-03-19T08:52:48.098Z,96007.29
2019-03-19T08:55:20.850Z,96017.61
2019-03-19T08:57:53.668Z,96018.64
2019-03-19T09:00:26.708Z,96016.21
2019-03-19T09:02:59.651Z,96017.75
2019-03-19T09:05:32.570Z,96023.06
2019-03-19T09:08:05.627Z,96018.84
2019-03-19T09:10:38.579Z,96010.91
2019-03-19T09:13:11.618Z,96021.18
2019-03-19T09:15:44.502Z,96019.00
2019-03-19T09:18:17.399Z,96017.47
2019-03-19T09:20:50.385Z,96009.73
2019-03-19T09:23:23.371Z,96010.26
2019-03-19T09:25:56.527Z,96007.34
2019-03-19T09:28:29.627Z,96011.94
2019-03-19T09:31:02.725Z,96004.17
2019-03-19T09:33:35.880Z,96001.91
2019-03-19T09:36:08.881Z,96001.34
2019-03-19T09:38:41.349Z,96002.61
2019-03-19T09:41:14.361Z,95997.96
2019-03-19T09:43:47.386Z,96001.55
2019-03-19T09:46:20.281Z,95998.92
2019-03-19T09:48:53.551Z,96006.16
2019-03-19T09:51:26.383Z,96004.91
2019-03-19T09:53:59.231Z,96006.61
2019-03-19T09:56:32.166Z,96007.59
2019-03-19T09:59:05.138Z,96021.35
2019-03-19T10:01:37.920Z,96010.44
2019-03-19T10:04:11.007Z,96011.41
2019-03-19T10:06:43.994Z,96010.92
2019-03-19T10:09:17.110Z,96016.31
2019-03-19T10:11:50.149Z,96016.41
2019-03-19T10:14:23.185Z,96022.66
2019-03-19T10:16:56.168Z,96015.97
2019-03-19T10:19:29.196Z,96015.28
2019-03-19T10:22:01.523Z,96017.74
2019-03-19T10:24:34.508Z,96018.48
2019-03-19T10:27:07.595Z,96024.52
2019-03-19T10:29:40.498Z,96014.32
2019-03-19T10:32:13.624Z,96023.67
2019-03-19T10:34:46.668Z,96017.56
2019-03-19T10:37:19.662Z,96021.05
2019-03-19T10:39:52.699Z,96023.22
2019-03-19T10:42:25.553Z,96021.30
2019-03-19T10:44:58.393Z,96020.19
2019-03-19T10:47:31.362Z,96028.94
2019-03-19T10:50:05.117Z,96027.63
2019-03-19T10:52:37.490Z,96027.45
2019-03-19T10:55:10.560Z,96025.00
2019-03-19T10:57:43.685Z,96019.25
2019-03-19T11:00:20.380Z,96026.03
2019-03-19T11:02:53.659Z,96023.89
2019-03-19T11:05:26.972Z,96014.10
2019-03-19T11:08:00.070Z,96017.75
2019-03-19T11:10:33.115Z,96025.56
2019-03-19T11:13:05.809Z,96022.02
2019-03-19T11:15:38.868Z,96023.89
2019-03-19T11:18:12.061Z,96028.69
2019-03-19T11:20:45.592Z,96032.50
2019-03-19T11:23:18.634Z,96029.41
2019-03-19T11:25:54.700Z,96037.19
2019-03-19T11:28:26.539Z,96044.63
2019-03-19T11:30:59.540Z,96047.62
2019-03-19T11:33:32.433Z,96043.91
2019-03-19T11:36:05.445Z,96037.37
2019-03-19T11:38:38.435Z,96041.78
2019-03-19T11:41:11.346Z,96042.70
2019-03-19T11:43:44.257Z,96033.63
2019-03-19T11:46:17.197Z,96037.06
2019-03-19T11:48:50.094Z,96036.84
2019-03-19T11:51:23.006Z,96031.23
2019-03-19T11:53:55.972Z,96040.03
2019-03-19T11:56:28.912Z,96038.22
2019-03-19T11:59:01.685Z,96044.39
2019-03-19T12:01:34.148Z,96042.92
2019-03-19T12:04:07.133Z,96042.09
2019-03-19T12:06:40.040Z,96044.55
2019-03-19T12:09:13.001Z,96042.87
2019-03-19T12:11:45.882Z,96045.39
2019-03-19T12:14:18.871Z,96049.55
2019-03-19T12:16:52.015Z,96042.55
2019-03-19T12:19:25.459Z,96038.45
2019-03-19T12:21:58.397Z,96052.28
2019-03-19T12:24:32.786Z,96056.87
2019-03-19T12:27:06.168Z,96058.66
2019-03-19T12:29:39.063Z,96055.11
2019-03-19T12:32:12.092Z,96054.97
2019-03-19T12:34:45.077Z,96056.75
2019-03-19T12:37:17.960Z,96057.72
2019-03-19T12:39:50.862Z,96042.48
2019-03-19T12:42:23.935Z,96049.86
2019-03-19T12:44:57.062Z,96050.38
2019-03-19T12:47:30.185Z,96044.42
2019-03-19T12:50:03.239Z,96044.62
2019-03-19T12:52:36.388Z,96046.02
2019-03-19T12:55:10.237Z,96048.84
2019-03-19T12:57:43.355Z,96048.72
2019-03-19T13:00:19.405Z,96039.41
2019-03-19T13:02:52.449Z,96039.64
2019-03-19T13:05:25.393Z,96034.23
2019-03-19T13:07:58.422Z,96033.40
2019-03-19T13:10:31.617Z,96032.46
2019-03-19T13:13:05.287Z,96030.78
2019-03-19T13:15:38.439Z,96028.55
2019-03-19T13:18:11.858Z,96036.94
2019-03-19T13:20:44.908Z,96041.32
2019-03-19T13:23:17.866Z,96037.90
2019-03-19T13:25:50.862Z,96042.30
2019-03-19T13:28:23.328Z,96044.73
2019-03-19T13:30:56.213Z,96050.07
2019-03-19T13:33:28.812Z,96039.20
2019-03-19T13:36:01.744Z,96035.94
2019-03-19T13:38:34.725Z,96032.38
2019-03-19T13:41:07.598Z,96036.77
2019-03-19T13:43:40.558Z,96027.61
2019-03-19T13:46:13.213Z,96024.55
2019-03-19T13:48:46.317Z,96021.00
2019-03-19T13:51:19.231Z,96037.32
2019-03-19T13:53:52.253Z,96031.70
2019-03-19T13:56:25.259Z,96034.36
2019-03-19T13:58:58.359Z,96026.64
2019-03-19T14:01:31.240Z,96028.09
2019-03-19T14:04:04.190Z,96027.63
2019-03-19T14:06:37.137Z,96014.09
2019-03-19T14:09:11.159Z,96027.21
2019-03-19T14:11:44.133Z,96020.74
2019-03-19T14:14:17.156Z,96016.08
2019-03-19T14:16:50.160Z,96026.48
2019-03-19T14:19:23.201Z,96022.77
2019-03-19T14:21:56.157Z,96025.91
2019-03-19T14:24:29.106Z,96037.19
2019-03-19T14:27:02.053Z,96040.91
2019-03-19T14:29:35.129Z,96044.95
2019-03-19T14:32:08.064Z,96052.00
2019-03-19T14:34:40.968Z,96043.58
2019-03-19T14:37:13.827Z,96038.55
2019-03-19T14:39:46.640Z,96038.37
2019-03-19T14:42:19.782Z,96034.12
2019-03-19T14:44:52.810Z,96037.06
2019-03-19T14:47:28.139Z,96029.42
2019-03-19T14:50:00.329Z,96040.75
2019-03-19T14:52:33.312Z,96045.35
2019-03-19T14:55:07.014Z,96041.64
2019-03-19T14:57:39.995Z,96052.41
2019-03-19T15:00:15.824Z,96059.34
2019-03-19T15:02:48.830Z,96049.34
2019-03-19T15:05:21.938Z,96047.27
2019-03-19T15:07:55.041Z,96045.58
2019-03-19T15:10:28.453Z,96043.34
2019-03-19T15:13:01.474Z,96043.75
2019-03-19T15:15:34.500Z,96049.27
2019-03-19T15:18:07.771Z,96056.30
2019-03-19T15:20:40.703Z,96059.02
2019-03-19T15:23:13.749Z,96051.33
2019-03-19T15:25:46.724Z,96054.54
2019-03-19T15:28:19.543Z,96056.22
2019-03-19T15:30:52.441Z,96058.31
2019-03-19T15:33:25.396Z,96058.38
2019-03-19T15:35:58.421Z,96050.24
2019-03-19T15:38:31.399Z,96056.89
2019-03-19T15:41:04.468Z,96050.75
2019-03-19T15:43:37.547Z,96061.13
2019-03-19T15:46:10.654Z,96058.86
2019-03-19T15:48:43.557Z,96059.34
2019-03-19T15:51:16.502Z,96063.31
2019-03-19T15:53:49.322Z,96056.61
2019-03-19T15:56:22.129Z,96053.77
2019-03-19T15:58:55.042Z,96057.94
2019-03-19T16:01:28.034Z,96072.91
2019-03-19T16:04:00.916Z,96074.03
2019-03-19T16:06:33.976Z,96070.30
2019-03-19T16:09:09.989Z,96076.58
2019-03-19T16:11:43.018Z,96071.76
2019-03-19T16:14:15.635Z,96072.91
2019-03-19T16:16:48.567Z,96075.10
2019-03-19T16:19:21.400Z,96080.89
2019-03-19T16:21:54.333Z,96087.14
2019-03-19T16:24:26.797Z,96090.45
2019-03-19T16:27:00.226Z,96090.36
2019-03-19T16:29:33.121Z,96090.98
2019-03-19T16:32:06.138Z,96094.41
2019-03-19T16:34:40.014Z,96099.30
2019-03-19T16:37:12.948Z,96095.11
2019-03-19T16:39:45.788Z,96103.72
2019-03-19T16:42:18.648Z,96110.71
2019-03-19T16:44:51.587Z,96108.25
2019-03-19T16:47:24.490Z,96110.88
2019-03-19T16:49:57.448Z,96111.48
2019-03-19T16:52:30.403Z,96110.33
2019-03-19T16:55:05.156Z,96127.84
2019-03-19T16:57:38.032Z,96118.80
2019-03-19T17:00:15.007Z,96127.66
2019-03-19T17:02:48.021Z,96127.53
2019-03-19T17:05:21.224Z,96127.84
2019-03-19T17:07:53.849Z,96139.44
2019-03-19T17:10:26.843Z,96143.72
2019-03-19T17:12:59.700Z,96146.48
2019-03-19T17:15:32.684Z,96152.61
2019-03-19T17:18:05.808Z,96156.55
2019-03-19T17:20:38.791Z,96154.95
2019-03-19T17:23:13.145Z,96153.09
2019-03-19T17:25:46.186Z,96167.20
2019-03-19T17:28:22.690Z,96173.76
2019-03-19T17:30:54.244Z,96175.48
2019-03-19T17:33:28.640Z,96186.05
2019-03-19T17:36:01.490Z,96181.45
2019-03-19T17:38:34.478Z,96181.53
2019-03-19T17:41:07.616Z,96191.44
2019-03-19T17:43:40.549Z,96200.09
2019-03-19T17:46:13.737Z,96201.33
2019-03-19T17:48:46.545Z,96205.64
2019-03-19T17:51:19.907Z,96203.63
2019-03-19T17:53:52.924Z,96210.22
2019-03-19T17:56:25.811Z,96215.78
2019-03-19T17:58:58.732Z,96213.94
2019-03-19T18:01:31.649Z,96221.78
2019-03-19T18:04:04.698Z,96217.06
2019-03-19T18:06:37.688Z,96225.23
2019-03-19T18:09:10.714Z,96220.72
2019-03-19T18:11:43.632Z,96220.97
2019-03-19T18:14:16.460Z,96233.13
2019-03-19T18:16:49.334Z,96233.13
2019-03-19T18:19:22.226Z,96235.13
2019-03-19T18:21:55.387Z,96241.79
2019-03-19T18:24:28.327Z,96243.42
2019-03-19T18:27:01.472Z,96248.21
2019-03-19T18:29:34.475Z,96242.92
2019-03-19T18:32:07.618Z,96245.73
2019-03-19T18:35:03.433Z,96241.74
2019-03-19T18:37:20.322Z,96255.79
2019-03-19T18:39:53.472Z,96253.66
2019-03-19T18:42:26.432Z,96256.86
2019-03-19T18:44:59.463Z,96258.23
2019-03-19T18:47:32.497Z,96251.13
2019-03-19T18:50:07.099Z,96260.55
2019-03-19T18:52:39.701Z,96264.31
2019-03-19T18:55:12.828Z,96265.48
2019-03-19T18:57:45.822Z,96264.55
2019-03-19T19:00:19.505Z,96270.70
2019-03-19T19:02:52.443Z,96271.98
2019-03-19T19:05:25.425Z,96271.22
2019-03-19T19:07:58.494Z,96280.61
2019-03-19T19:10:31.419Z,96283.67
2019-03-19T19:13:04.530Z,96281.78
2019-03-19T19:15:37.164Z,96279.19
2019-03-19T19:18:10.520Z,96274.58
2019-03-19T19:20:43.272Z,96278.77
2019-03-19T19:23:16.261Z,96285.07
2019-03-19T19:25:49.248Z,96286.58
2019-03-19T19:28:21.861Z,96285.09
2019-03-19T19:30:54.926Z,96287.94
2019-03-19T19:33:28.015Z,96288.45
2019-03-19T19:36:01.058Z,96296.60
2019-03-19T19:38:34.118Z,96297.70
2019-03-19T19:41:07.257Z,96302.11
2019-03-19T19:43:40.098Z,96307.19
2019-03-19T19:46:13.380Z,96305.51
2019-03-19T19:48:46.405Z,96316.61
2019-03-19T19:51:19.363Z,96309.03
2019-03-19T19:53:52.362Z,96309.14
2019-03-19T19:56:25.022Z,96318.27
2019-03-19T19:58:58.131Z,96313.20
2019-03-19T20:01:31.151Z,96308.23
2019-03-19T20:04:04.233Z,96312.05
2019-03-19T20:06:37.238Z,96310.36
2019-03-19T20:09:10.745Z,96311.83
2019-03-19T20:11:43.746Z,96318.09
2019-03-19T20:14:16.721Z,96313.03
2019-03-19T20:16:49.830Z,96324.12
2019-03-19T20:19:22.966Z,96312.47
2019-03-19T20:21:56.034Z,96315.98
2019-03-19T20:24:30.898Z,96316.39
2019-03-19T20:27:04.006Z,96318.92
2019-03-19T20:29:37.232Z,96328.39
2019-03-19T20:32:10.842Z,96333.03
2019-03-19T20:34:45.818Z,96334.66
2019-03-19T20:37:18.799Z,96342.74
2019-03-19T20:39:51.797Z,96337.72
2019-03-19T20:42:24.656Z,96331.83
2019-03-19T20:44:57.617Z,96333.41
2019-03-19T20:47:30.528Z,96337.61
2019-03-19T20:50:03.632Z,96333.98
2019-03-19T20:52:36.318Z,96338.95
2019-03-19T20:55:09.691Z,96345.97
2019-03-19T20:57:42.853Z,96344.81
2019-03-19T21:00:17.432Z,96350.17
2019-03-19T21:02:50.117Z,96356.78
2019-03-19T21:05:22.885Z,96364.76
2019-03-19T21:07:55.963Z,96361.79
2019-03-19T21:10:29.045Z,96368.68
2019-03-19T21:13:02.080Z,96360.99
2019-03-19T21:15:35.187Z,96367.13
2019-03-19T21:18:08.406Z,96373.52
2019-03-19T21:20:41.335Z,96378.66
2019-03-19T21:23:13.817Z,96376.52
2019-03-19T21:25:46.746Z,96374.39
2019-03-19T21:28:19.698Z,96374.81
2019-03-19T21:30:52.694Z,96375.26
2019-03-19T21:33:25.717Z,96377.23
2019-03-19T21:35:58.633Z,96377.92
2019-03-19T21:38:31.648Z,96378.23
2019-03-19T21:41:04.608Z,96380.97
2019-03-19T21:43:38.176Z,96386.61
2019-03-19T21:46:11.511Z,96381.49
2019-03-19T21:48:44.423Z,96381.28
2019-03-19T21:51:17.450Z,96384.56
2019-03-19T21:53:50.416Z,96386.60
2019-03-19T21:56:23.285Z,96385.60
2019-03-19T21:58:56.292Z,96396.57
2019-03-19T22:01:29.114Z,96379.31
2019-03-19T22:04:03.273Z,96379.55
2019-03-19T22:06:36.754Z,96392.73
2019-03-19T22:09:09.984Z,96390.86
2019-03-19T22:11:43.197Z,96399.95
2019-03-19T22:14:16.276Z,96396.48
2019-03-19T22:16:49.294Z,96399.34
2019-03-19T22:19:22.379Z,96397.61
2019-03-19T22:21:55.341Z,96401.86
2019-03-19T22:24:28.275Z,96405.30
2019-03-19T22:27:01.384Z,96411.19
2019-03-19T22:29:34.266Z,96409.38
2019-03-19T22:32:07.362Z,96410.84
2019-03-19T22:34:40.352Z,96417.32
2019-03-19T22:37:13.432Z,96421.45
2019-03-19T22:39:45.941Z,96420.02
2019-03-19T22:42:18.735Z,96418.89
2019-03-19T22:44:51.673Z,96424.50
2019-03-19T22:47:24.754Z,96417.13
2019-03-19T22:49:57.753Z,96433.18
2019-03-19T22:52:30.435Z,96428.91
2019-03-19T22:55:06.944Z,96425.81
2019-03-19T22:57:39.689Z,96429.28
2019-03-19T23:00:41.099Z,96436.47
2019-03-19T23:03:14.249Z,96435.48
2019-03-19T23:05:47.266Z,96437.55
2019-03-19T23:08:20.161Z,96436.46
2019-03-19T23:10:53.228Z,96432.74
2019-03-19T23:13:25.907Z,96441.80
2019-03-19T23:15:58.712Z,96433.04
2019-03-19T23:18:31.447Z,96431.52
2019-03-19T23:21:05.337Z,96432.88
2019-03-19T23:23:39.463Z,96434.87
2019-03-19T23:26:12.959Z,96435.78
2019-03-19T23:28:50.051Z,96431.86
2019-03-19T23:31:31.842Z,96439.13
2019-03-19T23:34:12.488Z,96430.67
2019-03-19T23:37:11.638Z,96438.89
2019-03-19T23:39:40.098Z,96428.47
2019-03-19T23:42:59.779Z,96442.83
2019-03-19T23:45:43.151Z,96443.08
2019-03-19T23:48:21.161Z,96439.36
2019-03-19T23:58:22.721Z,96431.60
